createdAt,value
2018-09-04T00:02:12.621Z,18.70
2018-09-04T00:04:41.118Z,21.50
2018-09-04T00:07:09.648Z,21.60
2018-09-04T00:09:38.034Z,20.63
2018-09-04T00:12:06.539Z,21.30
2018-09-04T00:14:35.188Z,21.40
2018-09-04T00:17:03.718Z,18.60
2018-09-04T00:19:32.165Z,23.60
2018-09-04T00:22:00.643Z,23.70
2018-09-04T00:24:34.664Z,22.50
2018-09-04T00:27:03.139Z,23.80
2018-09-04T00:29:31.704Z,23.10
2018-09-04T00:32:00.103Z,19.10
2018-09-04T00:34:28.612Z,22.50
2018-09-04T00:36:57.079Z,22.53
2018-09-04T00:39:25.592Z,21.20
2018-09-04T00:41:53.992Z,22.37
2018-09-04T00:44:22.696Z,25.30
2018-09-04T00:46:51.168Z,21.10
2018-09-04T00:49:19.744Z,20.97
2018-09-04T00:51:48.403Z,27.93
2018-09-04T00:54:16.896Z,21.67
2018-09-04T00:56:45.289Z,20.87
2018-09-04T00:59:13.760Z,24.83
2018-09-04T01:01:42.439Z,21.70
2018-09-04T01:04:11.004Z,23.50
2018-09-04T01:06:39.467Z,25.30
2018-09-04T01:09:08.089Z,23.73
2018-09-04T01:11:36.609Z,25.03
2018-09-04T01:14:05.065Z,22.70
2018-09-04T01:16:33.802Z,20.77
2018-09-04T01:19:02.220Z,27.40
2018-09-04T01:21:30.707Z,26.40
2018-09-04T01:23:59.228Z,24.43
2018-09-04T01:26:27.660Z,24.60
2018-09-04T01:28:56.204Z,22.30
2018-09-04T01:31:24.621Z,22.20
2018-09-04T01:33:53.187Z,23.00
2018-09-04T01:36:21.581Z,24.73
2018-09-04T01:38:50.094Z,25.73
2018-09-04T01:41:18.542Z,24.00
2018-09-04T01:43:47.025Z,22.07
2018-09-04T01:46:15.576Z,24.40
2018-09-04T01:48:44.005Z,20.53
2018-09-04T01:51:12.475Z,24.00
2018-09-04T01:53:41.354Z,22.27
2018-09-04T01:56:09.963Z,24.73
2018-09-04T01:58:38.650Z,22.20
2018-09-04T02:01:07.214Z,22.03
2018-09-04T02:03:35.714Z,25.13
2018-09-04T02:06:04.212Z,23.80
2018-09-04T02:08:32.692Z,23.80
2018-09-04T02:11:01.177Z,21.63
2018-09-04T02:13:29.849Z,24.77
2018-09-04T02:15:58.316Z,23.27
2018-09-04T02:18:26.769Z,24.20
2018-09-04T02:20:55.343Z,24.10
2018-09-04T02:23:23.760Z,25.67
2018-09-04T02:25:52.211Z,24.97
2018-09-04T02:28:20.821Z,22.60
2018-09-04T02:30:49.371Z,22.03
2018-09-04T02:33:17.904Z,24.70
2018-09-04T02:35:46.508Z,25.93
2018-09-04T02:38:15.043Z,25.47
2018-09-04T02:40:43.497Z,24.57
2018-09-04T02:43:12.195Z,23.10
2018-09-04T02:45:40.705Z,25.07
2018-09-04T02:48:09.425Z,23.13
2018-09-04T02:50:37.842Z,22.20
2018-09-04T02:53:06.490Z,23.33
2018-09-04T02:55:35.129Z,23.80
2018-09-04T02:58:03.960Z,26.17
2018-09-04T03:00:32.419Z,26.03
2018-09-04T03:03:00.850Z,24.07
2018-09-04T03:05:35.037Z,25.23
2018-09-04T03:08:03.580Z,25.50
2018-09-04T03:10:32.208Z,22.03
2018-09-04T03:13:00.721Z,25.00
2018-09-04T03:15:29.570Z,25.93
2018-09-04T03:17:58.091Z,23.00
2018-09-04T03:20:26.627Z,21.97
2018-09-04T03:22:55.118Z,25.30
2018-09-04T03:25:23.547Z,23.37
2018-09-04T03:27:52.046Z,23.10
2018-09-04T03:30:20.502Z,26.33
2018-09-04T03:32:49.107Z,25.97
2018-09-04T03:35:17.672Z,25.90
2018-09-04T03:37:46.248Z,26.57
2018-09-04T03:40:14.808Z,21.80
2018-09-04T03:42:43.332Z,25.10
2018-09-04T03:45:11.868Z,26.40
2018-09-04T03:47:40.276Z,26.47
2018-09-04T03:50:09.136Z,22.60
2018-09-04T03:52:37.639Z,26.43
2018-09-04T03:55:06.422Z,22.97
2018-09-04T03:57:35.397Z,28.97
2018-09-04T04:00:03.889Z,23.10
2018-09-04T04:02:32.362Z,23.40
2018-09-04T04:05:00.864Z,24.27
2018-09-04T04:07:29.563Z,27.60
2018-09-04T04:09:58.028Z,26.90
2018-09-04T04:12:26.505Z,25.40
2018-09-04T04:14:55.135Z,27.63
2018-09-04T04:17:23.702Z,24.63
2018-09-04T04:19:52.183Z,27.70
2018-09-04T04:22:20.630Z,23.97
2018-09-04T04:24:49.130Z,23.93
2018-09-04T04:27:17.672Z,24.10
2018-09-04T04:29:46.096Z,23.43
2018-09-04T04:32:14.629Z,27.33
2018-09-04T04:34:43.060Z,28.33
2018-09-04T04:37:11.564Z,24.70
2018-09-04T04:39:40.024Z,28.00
2018-09-04T04:42:08.572Z,27.40
2018-09-04T04:44:37.140Z,28.00
2018-09-04T04:47:05.679Z,27.30
2018-09-04T04:49:34.199Z,25.23
2018-09-04T04:52:02.701Z,26.23
2018-09-04T04:54:31.284Z,25.07
2018-09-04T04:56:59.770Z,25.57
2018-09-04T04:59:29.770Z,27.20
2018-09-04T05:01:58.176Z,26.90
2018-09-04T05:04:26.676Z,26.93
2018-09-04T05:06:55.352Z,27.70
2018-09-04T05:09:23.856Z,26.03
2018-09-04T05:11:52.311Z,25.97
2018-09-04T05:14:20.776Z,26.40
2018-09-04T05:16:49.238Z,25.37
2018-09-04T05:19:17.759Z,25.77
2018-09-04T05:21:46.240Z,25.23
2018-09-04T05:24:14.692Z,26.03
2018-09-04T05:26:43.157Z,21.50
2018-09-04T05:29:11.700Z,26.87
2018-09-04T05:31:52.224Z,23.13
2018-09-04T05:34:22.712Z,23.33
2018-09-04T05:36:51.370Z,20.83
2018-09-04T05:39:19.979Z,23.67
2018-09-04T05:41:48.370Z,22.77
2018-09-04T05:44:16.929Z,24.17
2018-09-04T05:46:47.440Z,24.50
2018-09-04T05:49:19.326Z,21.30
2018-09-04T05:51:47.997Z,26.17
2018-09-04T05:54:16.569Z,24.33
2018-09-04T05:56:44.988Z,23.20
2018-09-04T05:59:13.520Z,24.63
2018-09-04T06:01:42.882Z,24.87
2018-09-04T06:04:11.496Z,26.67
2018-09-04T06:06:39.952Z,25.63
2018-09-04T06:09:08.660Z,23.80
2018-09-04T06:11:37.104Z,25.03
2018-09-04T06:14:05.832Z,22.50
2018-09-04T06:16:34.262Z,22.33
2018-09-04T06:19:02.791Z,27.73
2018-09-04T06:21:31.220Z,27.53
2018-09-04T06:23:59.720Z,23.17
2018-09-04T06:26:28.236Z,19.83
2018-09-04T06:28:56.647Z,25.93
2018-09-04T06:31:25.220Z,25.07
2018-09-04T06:33:54.001Z,23.17
2018-09-04T06:36:22.591Z,27.60
2018-09-04T06:38:51.033Z,23.40
2018-09-04T06:41:19.488Z,24.90
2018-09-04T06:43:48.004Z,26.07
2018-09-04T06:46:16.472Z,27.50
2018-09-04T06:48:45.133Z,24.60
2018-09-04T06:51:13.596Z,28.00
2018-09-04T06:53:42.090Z,27.90
2018-09-04T06:56:10.567Z,26.83
2018-09-04T06:58:39.104Z,25.67
2018-09-04T07:01:07.753Z,26.03
2018-09-04T07:03:36.715Z,27.63
2018-09-04T07:06:05.439Z,27.60
2018-09-04T07:08:33.780Z,23.23
2018-09-04T07:11:02.335Z,28.00
2018-09-04T07:13:30.774Z,28.60
2018-09-04T07:15:59.323Z,25.77
2018-09-04T07:18:27.956Z,26.83
2018-09-04T07:20:56.475Z,25.90
2018-09-04T07:23:24.912Z,29.70
2018-09-04T07:25:53.380Z,26.37
2018-09-04T07:28:22.121Z,30.20
2018-09-04T07:30:50.549Z,30.37
2018-09-04T07:33:18.991Z,28.20
2018-09-04T07:35:47.512Z,23.93
2018-09-04T07:38:16.013Z,25.03
2018-09-04T07:40:44.418Z,22.30
2018-09-04T07:43:12.936Z,20.90
2018-09-04T07:45:41.662Z,17.60
2018-09-04T07:48:10.324Z,17.73
2018-09-04T07:50:38.774Z,15.47
2018-09-04T07:53:07.504Z,17.97
2018-09-04T07:55:35.937Z,17.13
2018-09-04T07:58:04.501Z,15.57
2018-09-04T08:00:32.913Z,15.13
2018-09-04T08:03:01.432Z,16.90
2018-09-04T08:05:30.271Z,15.77
2018-09-04T08:07:58.854Z,15.57
2018-09-04T08:10:27.714Z,15.40
2018-09-04T08:12:56.341Z,16.43
2018-09-04T08:15:24.836Z,15.30
2018-09-04T08:17:53.365Z,15.33
2018-09-04T08:20:21.876Z,16.10
2018-09-04T08:22:50.488Z,15.30
2018-09-04T08:25:18.956Z,16.00
2018-09-04T08:27:47.431Z,17.53
2018-09-04T08:30:16.073Z,16.50
2018-09-04T08:32:44.701Z,14.70
2018-09-04T08:35:17.201Z,16.23
2018-09-04T08:37:45.669Z,17.33
2018-09-04T08:40:14.384Z,15.30
2018-09-04T08:42:42.808Z,15.83
2018-09-04T08:45:11.790Z,16.50
2018-09-04T08:47:40.373Z,15.80
2018-09-04T08:50:08.856Z,16.50
2018-09-04T08:52:37.335Z,15.77
2018-09-04T08:55:06.003Z,15.70
2018-09-04T08:57:34.792Z,16.23
2018-09-04T09:00:03.415Z,15.87
2018-09-04T09:02:31.887Z,16.10
2018-09-04T09:05:00.391Z,17.43
2018-09-04T09:07:30.236Z,15.47
2018-09-04T09:09:58.751Z,16.10
2018-09-04T09:12:27.193Z,15.47
2018-09-04T09:14:55.681Z,16.00
2018-09-04T09:17:24.152Z,14.70
2018-09-04T09:19:53.112Z,15.70
2018-09-04T09:22:21.907Z,16.07
2018-09-04T09:24:50.452Z,16.00
2018-09-04T09:27:19.161Z,16.20
2018-09-04T09:29:47.609Z,15.70
2018-09-04T09:32:16.108Z,16.50
2018-09-04T09:34:44.566Z,15.47
2018-09-04T09:37:13.021Z,13.90
2018-09-04T09:39:41.500Z,15.90
2018-09-04T09:42:12.620Z,15.53
2018-09-04T09:44:42.334Z,15.90
2018-09-04T09:47:10.840Z,14.30
2018-09-04T09:49:39.597Z,15.47
2018-09-04T09:52:08.025Z,16.63
2018-09-04T09:54:36.657Z,14.70
2018-09-04T09:57:05.167Z,16.77
2018-09-04T09:59:33.787Z,16.70
2018-09-04T10:02:07.520Z,15.57
2018-09-04T10:04:36.089Z,14.87
2018-09-04T10:07:04.836Z,15.50
2018-09-04T10:09:33.350Z,15.03
2018-09-04T10:12:01.830Z,14.70
2018-09-04T10:14:30.295Z,14.93
2018-09-04T10:16:59.365Z,16.23
2018-09-04T10:19:27.833Z,15.80
2018-09-04T10:21:56.314Z,14.60
2018-09-04T10:24:24.861Z,15.87
2018-09-04T10:26:53.406Z,15.20
2018-09-04T10:29:22.001Z,15.83
2018-09-04T10:31:50.467Z,14.47
2018-09-04T10:34:18.960Z,15.87
2018-09-04T10:36:47.600Z,14.57
2018-09-04T10:39:21.304Z,14.80
2018-09-04T10:41:49.714Z,15.13
2018-09-04T10:44:18.306Z,15.60
2018-09-04T10:46:46.647Z,16.37
2018-09-04T10:49:15.123Z,15.70
2018-09-04T10:51:43.631Z,15.30
2018-09-04T10:54:12.232Z,16.40
2018-09-04T10:56:40.812Z,15.00
2018-09-04T10:59:09.281Z,15.90
2018-09-04T11:01:37.961Z,16.07
2018-09-04T11:04:06.499Z,15.80
2018-09-04T11:06:34.952Z,15.23
2018-09-04T11:09:03.521Z,15.03
2018-09-04T11:11:31.909Z,15.83
2018-09-04T11:14:00.342Z,14.60
2018-09-04T11:16:28.831Z,15.70
2018-09-04T11:18:57.331Z,16.30
2018-09-04T11:21:25.976Z,13.70
2018-09-04T11:23:54.461Z,15.70
2018-09-04T11:26:22.925Z,15.00
2018-09-04T11:28:55.850Z,15.90
2018-09-04T11:31:24.446Z,15.57
2018-09-04T11:33:53.143Z,15.23
2018-09-04T11:36:21.569Z,16.33
2018-09-04T11:38:50.117Z,15.73
2018-09-04T11:41:18.569Z,15.07
2018-09-04T11:43:47.077Z,15.67
2018-09-04T11:46:15.514Z,15.20
2018-09-04T11:48:44.084Z,15.80
2018-09-04T11:51:12.617Z,15.77
2018-09-04T11:53:41.182Z,15.03
2018-09-04T11:56:09.878Z,14.47
2018-09-04T11:58:38.347Z,15.30
2018-09-04T12:01:13.158Z,14.87
2018-09-04T12:03:41.650Z,15.50
2018-09-04T12:06:10.358Z,16.30
2018-09-04T12:08:38.799Z,14.03
2018-09-04T12:11:07.265Z,14.50
2018-09-04T12:13:35.969Z,15.17
2018-09-04T12:16:04.557Z,14.93
2018-09-04T12:18:35.161Z,14.27
2018-09-04T12:21:08.484Z,14.00
2018-09-04T12:23:37.348Z,14.83
2018-09-04T12:26:07.199Z,14.87
2018-09-04T12:28:36.104Z,14.77
2018-09-04T12:31:04.987Z,15.70
2018-09-04T12:33:33.887Z,15.43
2018-09-04T12:36:02.310Z,14.97
2018-09-04T12:38:32.524Z,14.67
2018-09-04T12:41:05.183Z,14.00
2018-09-04T12:43:35.177Z,14.80
2018-09-04T12:46:03.705Z,15.40
2018-09-04T12:48:32.215Z,15.23
2018-09-04T12:51:01.869Z,15.60
2018-09-04T12:53:32.329Z,15.47
2018-09-04T12:56:00.817Z,14.93
2018-09-04T12:58:29.325Z,14.80
2018-09-04T13:00:58.361Z,15.63
2018-09-04T13:03:28.059Z,14.60
2018-09-04T13:05:56.818Z,14.43
2018-09-04T13:08:26.894Z,14.53
2018-09-04T13:10:55.405Z,14.90
2018-09-04T13:13:24.188Z,15.13
2018-09-04T13:15:57.473Z,15.03
2018-09-04T13:18:26.848Z,15.57
2018-09-04T13:21:02.952Z,13.83
2018-09-04T13:23:32.790Z,14.10
2018-09-04T13:26:01.194Z,14.77
2018-09-04T13:28:30.405Z,13.77
2018-09-04T13:30:58.976Z,14.50
2018-09-04T13:33:29.506Z,14.90
2018-09-04T13:35:57.998Z,14.93
2018-09-04T13:38:26.720Z,14.20
2018-09-04T13:41:00.708Z,14.20
2018-09-04T13:43:29.180Z,13.70
2018-09-04T13:45:57.682Z,15.07
2018-09-04T13:48:28.064Z,13.87
2018-09-04T13:50:56.635Z,14.37
2018-09-04T13:53:25.262Z,14.90
2018-09-04T13:55:53.924Z,15.20
2018-09-04T13:58:22.499Z,14.90
2018-09-04T14:00:51.040Z,14.53
2018-09-04T14:03:19.507Z,14.83
2018-09-04T14:05:48.173Z,14.80
2018-09-04T14:08:16.688Z,14.80
2018-09-04T14:10:45.380Z,14.57
2018-09-04T14:13:13.841Z,15.27
2018-09-04T14:15:42.311Z,15.00
2018-09-04T14:18:10.798Z,14.17
2018-09-04T14:20:40.220Z,14.93
2018-09-04T14:23:08.771Z,14.40
2018-09-04T14:25:37.288Z,14.13
2018-09-04T14:28:05.896Z,15.80
2018-09-04T14:30:34.492Z,13.67
2018-09-04T14:33:02.879Z,15.03
2018-09-04T14:35:31.393Z,13.93
2018-09-04T14:37:59.892Z,14.60
2018-09-04T14:40:28.356Z,14.20
2018-09-04T14:42:57.038Z,14.03
2018-09-04T14:45:25.530Z,14.50
2018-09-04T14:47:53.970Z,15.60
2018-09-04T14:50:22.435Z,15.80
2018-09-04T14:52:50.988Z,14.60
2018-09-04T14:55:19.461Z,14.80
2018-09-04T14:57:47.952Z,14.53
2018-09-04T15:00:17.411Z,15.30
2018-09-04T15:02:46.127Z,14.47
2018-09-04T15:05:14.740Z,14.87
2018-09-04T15:07:43.224Z,14.57
2018-09-04T15:10:11.927Z,15.40
2018-09-04T15:12:40.431Z,14.63
2018-09-04T15:15:09.073Z,15.80
2018-09-04T15:17:37.578Z,14.60
2018-09-04T15:20:06.282Z,14.83
2018-09-04T15:22:34.720Z,15.80
2018-09-04T15:25:03.272Z,15.60
2018-09-04T15:27:31.696Z,15.23
2018-09-04T15:30:00.360Z,15.20
2018-09-04T15:32:28.973Z,14.63
2018-09-04T15:34:57.569Z,15.33
2018-09-04T15:37:26.128Z,14.23
2018-09-04T15:39:54.681Z,16.20
2018-09-04T15:42:23.220Z,15.63
2018-09-04T15:44:51.656Z,15.30
2018-09-04T15:47:20.186Z,14.30
2018-09-04T15:49:49.169Z,15.50
2018-09-04T15:52:17.984Z,14.07
2018-09-04T15:54:46.415Z,14.93
2018-09-04T15:57:15.248Z,14.40
2018-09-04T15:59:43.754Z,15.13
2018-09-04T16:02:12.352Z,15.90
2018-09-04T16:04:40.981Z,15.07
2018-09-04T16:07:09.399Z,14.20
2018-09-04T16:09:37.948Z,15.27
2018-09-04T16:12:06.404Z,15.30
2018-09-04T16:14:34.877Z,15.10
2018-09-04T16:17:03.395Z,14.33
2018-09-04T16:19:31.803Z,15.23
2018-09-04T16:22:00.327Z,15.00
2018-09-04T16:24:28.814Z,15.10
2018-09-04T16:26:57.322Z,14.17
2018-09-04T16:29:25.757Z,15.87
2018-09-04T16:31:54.202Z,15.20
2018-09-04T16:34:22.749Z,15.47
2018-09-04T16:36:51.187Z,15.00
2018-09-04T16:39:19.939Z,15.30
2018-09-04T16:41:48.541Z,15.43
2018-09-04T16:44:17.052Z,15.40
2018-09-04T16:46:45.544Z,14.73
2018-09-04T16:49:14.312Z,15.00
2018-09-04T16:51:42.907Z,15.27
2018-09-04T16:54:11.389Z,15.07
2018-09-04T16:56:39.928Z,14.50
2018-09-04T16:59:08.538Z,15.13
2018-09-04T17:01:37.096Z,14.00
2018-09-04T17:04:05.537Z,14.47
2018-09-04T17:06:36.409Z,14.70
2018-09-04T17:09:05.608Z,14.80
2018-09-04T17:11:34.116Z,14.60
2018-09-04T17:14:02.680Z,14.80
2018-09-04T17:16:31.297Z,13.80
2018-09-04T17:18:59.946Z,15.30
2018-09-04T17:21:30.181Z,15.90
2018-09-04T17:23:58.663Z,15.97
2018-09-04T17:26:27.123Z,14.90
2018-09-04T17:28:55.644Z,14.67
2018-09-04T17:31:24.092Z,14.50
2018-09-04T17:33:52.648Z,14.17
2018-09-04T17:36:21.320Z,15.03
2018-09-04T17:38:49.908Z,14.30
2018-09-04T17:41:18.488Z,15.00
2018-09-04T17:43:46.917Z,14.67
2018-09-04T17:46:15.386Z,14.77
2018-09-04T17:48:43.922Z,14.90
2018-09-04T17:51:12.381Z,15.33
2018-09-04T17:53:40.812Z,13.90
2018-09-04T17:56:09.293Z,14.30
2018-09-04T17:58:37.820Z,14.50
2018-09-04T18:01:06.566Z,15.00
2018-09-04T18:03:34.988Z,14.60
2018-09-04T18:06:03.456Z,14.00
2018-09-04T18:08:32.680Z,13.60
2018-09-04T18:11:01.200Z,14.60
2018-09-04T18:13:29.848Z,13.90
2018-09-04T18:15:58.368Z,13.40
2018-09-04T18:18:26.841Z,14.23
2018-09-04T18:20:55.365Z,13.87
2018-09-04T18:23:23.840Z,13.80
2018-09-04T18:25:52.263Z,12.70
2018-09-04T18:28:20.790Z,14.67
2018-09-04T18:30:49.292Z,14.47
2018-09-04T18:33:17.720Z,14.23
2018-09-04T18:35:46.203Z,13.77
2018-09-04T18:38:14.728Z,13.40
2018-09-04T18:40:43.148Z,13.83
2018-09-04T18:43:11.665Z,13.63
2018-09-04T18:45:46.088Z,13.00
2018-09-04T18:48:14.594Z,13.77
2018-09-04T18:50:43.531Z,12.90
2018-09-04T18:53:11.911Z,13.30
2018-09-04T18:55:40.445Z,12.13
2018-09-04T18:58:09.482Z,12.40
2018-09-04T19:00:38.040Z,12.77
2018-09-04T19:03:06.631Z,12.80
2018-09-04T19:05:35.215Z,11.80
2018-09-04T19:08:03.640Z,11.47
2018-09-04T19:10:35.981Z,12.63
2018-09-04T19:13:04.846Z,11.97
2018-09-04T19:15:33.348Z,13.10
2018-09-04T19:18:01.883Z,12.90
2018-09-04T19:20:30.356Z,11.63
2018-09-04T19:22:58.811Z,12.27
2018-09-04T19:25:27.324Z,12.20
2018-09-04T19:27:55.791Z,13.43
2018-09-04T19:30:24.297Z,12.90
2018-09-04T19:32:52.989Z,12.83
2018-09-04T19:35:21.458Z,12.37
2018-09-04T19:37:53.388Z,11.73
2018-09-04T19:40:21.869Z,12.57
2018-09-04T19:42:53.407Z,13.20
2018-09-04T19:45:21.981Z,13.00
2018-09-04T19:47:50.386Z,12.17
2018-09-04T19:50:18.897Z,12.40
2018-09-04T19:52:47.348Z,12.80
2018-09-04T19:55:15.870Z,12.30
2018-09-04T19:57:44.294Z,13.60
2018-09-04T20:00:13.300Z,13.90
2018-09-04T20:02:41.873Z,12.87
2018-09-04T20:05:10.540Z,12.93
2018-09-04T20:07:39.430Z,13.10
2018-09-04T20:10:07.995Z,12.93
2018-09-04T20:12:38.019Z,13.47
2018-09-04T20:15:06.529Z,12.57
2018-09-04T20:17:35.027Z,12.23
2018-09-04T20:20:03.560Z,13.10
2018-09-04T20:22:32.020Z,13.23
2018-09-04T20:25:00.491Z,13.13
2018-09-04T20:27:28.948Z,14.00
2018-09-04T20:29:57.583Z,13.00
2018-09-04T20:32:26.131Z,14.67
2018-09-04T20:34:54.649Z,14.03
2018-09-04T20:37:23.122Z,12.27
2018-09-04T20:39:51.995Z,13.43
2018-09-04T20:42:20.586Z,13.33
2018-09-04T20:44:49.080Z,12.93
2018-09-04T20:47:17.564Z,12.37
2018-09-04T20:49:46.141Z,13.53
2018-09-04T20:52:14.520Z,13.23
2018-09-04T20:54:43.004Z,13.50
2018-09-04T20:57:29.906Z,13.53
2018-09-04T21:00:11.101Z,13.83
2018-09-04T21:02:50.765Z,14.27
2018-09-04T21:05:30.504Z,13.97
2018-09-04T21:08:43.280Z,14.47
2018-09-04T21:11:11.837Z,13.90
2018-09-04T21:13:40.275Z,14.10
2018-09-04T21:16:08.775Z,15.23
2018-09-04T21:18:37.223Z,15.00
2018-09-04T21:21:06.319Z,13.87
2018-09-04T21:23:34.847Z,13.80
2018-09-04T21:26:03.527Z,13.33
2018-09-04T21:28:32.015Z,15.37
2018-09-04T21:31:00.503Z,15.30
2018-09-04T21:33:29.129Z,13.27
2018-09-04T21:35:57.704Z,13.27
2018-09-04T21:38:26.172Z,14.00
2018-09-04T21:40:54.577Z,14.40
2018-09-04T21:43:23.048Z,14.53
2018-09-04T21:45:51.580Z,15.17
2018-09-04T21:48:20.114Z,12.60
2018-09-04T21:50:48.698Z,13.73
2018-09-04T21:53:17.766Z,13.20
2018-09-04T21:55:46.397Z,14.37
2018-09-04T21:58:14.985Z,13.10
2018-09-04T22:00:43.936Z,13.57
2018-09-04T22:03:12.627Z,14.50
2018-09-04T22:05:41.343Z,12.83
2018-09-04T22:08:09.904Z,13.80
2018-09-04T22:10:38.379Z,16.73
2018-09-04T22:13:07.206Z,15.20
2018-09-04T22:15:36.035Z,16.80
2018-09-04T22:18:04.488Z,15.77
2018-09-04T22:20:33.183Z,13.90
2018-09-04T22:23:01.780Z,15.47
2018-09-04T22:25:30.719Z,14.07
2018-09-04T22:27:59.414Z,14.57
2018-09-04T22:30:27.902Z,15.00
2018-09-04T22:32:56.776Z,16.63
2018-09-04T22:35:25.327Z,16.43
2018-09-04T22:37:53.796Z,17.07
2018-09-04T22:40:22.395Z,14.90
2018-09-04T22:42:50.992Z,13.50
2018-09-04T22:45:19.557Z,15.00
2018-09-04T22:47:48.105Z,15.80
2018-09-04T22:50:22.089Z,13.80
2018-09-04T22:52:50.659Z,14.37
2018-09-04T22:55:19.255Z,13.63
2018-09-04T22:57:47.736Z,14.60
2018-09-04T23:00:17.607Z,15.73
2018-09-04T23:02:47.202Z,14.53
2018-09-04T23:05:15.582Z,13.97
2018-09-04T23:07:44.096Z,13.60
2018-09-04T23:10:12.597Z,13.90
2018-09-04T23:12:41.046Z,15.47
2018-09-04T23:15:09.742Z,15.00
2018-09-04T23:17:38.221Z,16.30
2018-09-04T23:20:07.064Z,16.00
2018-09-04T23:22:35.613Z,16.00
2018-09-04T23:25:04.072Z,14.87
2018-09-04T23:27:32.594Z,13.80
2018-09-04T23:30:01.462Z,14.53
2018-09-04T23:32:29.903Z,15.00
2018-09-04T23:34:58.392Z,17.27
2018-09-04T23:37:29.521Z,14.83
2018-09-04T23:39:58.230Z,14.53
2018-09-04T23:42:31.240Z,14.67
2018-09-04T23:45:00.096Z,15.80
2018-09-04T23:47:28.572Z,15.73
2018-09-04T23:49:57.253Z,16.40
2018-09-04T23:52:25.904Z,16.13
2018-09-04T23:54:54.488Z,18.37
2018-09-04T23:57:23.085Z,20.67
2018-09-04T23:59:51.576Z,16.47
